sensor_id;sensor_type;location;lat;lon;timestamp;temperature;humidity
24252;DHT22;12380;51.118;4.176;2022-12-20T00:00:43;10.70;99.90
24252;DHT22;12380;51.118;4.176;2022-12-20T00:03:09;10.70;99.90
24252;DHT22;12380;51.118;4.176;2022-12-20T00:05:39;10.60;99.90
24252;DHT22;12380;51.118;4.176;2022-12-20T00:08:05;10.70;99.90
24252;DHT22;12380;51.118;4.176;2022-12-20T00:10:34;10.50;99.90
24252;DHT22;12380;51.118;4.176;2022-12-20T00:13:00;10.40;99.90
24252;DHT22;12380;51.118;4.176;2022-12-20T00:15:26;10.40;99.90
24252;DHT22;12380;51.118;4.176;2022-12-20T00:17:52;10.50;99.90
24252;DHT22;12380;51.118;4.176;2022-12-20T00:20:18;10.50;99.90
24252;DHT22;12380;51.118;4.176;2022-12-20T00:22:43;10.50;99.90
24252;DHT22;12380;51.118;4.176;2022-12-20T00:25:10;10.40;99.90
24252;DHT22;12380;51.118;4.176;2022-12-20T00:27:35;10.40;99.90
24252;DHT22;12380;51.118;4.176;2022-12-20T00:30:01;10.40;99.90
24252;DHT22;12380;51.118;4.176;2022-12-20T00:32:27;10.40;99.90
24252;DHT22;12380;51.118;4.176;2022-12-20T00:34:52;10.30;99.90
24252;DHT22;12380;51.118;4.176;2022-12-20T00:37:18;10.40;99.90
24252;DHT22;12380;51.118;4.176;2022-12-20T00:39:43;10.30;99.90
24252;DHT22;12380;51.118;4.176;2022-12-20T00:42:09;10.40;99.90
24252;DHT22;12380;51.118;4.176;2022-12-20T00:44:37;10.20;99.90
24252;DHT22;12380;51.118;4.176;2022-12-20T00:47:02;10.30;99.90
24252;DHT22;12380;51.118;4.176;2022-12-20T00:49:28;10.30;99.90
24252;DHT22;12380;51.118;4.176;2022-12-20T00:51:53;10.20;99.90
24252;DHT22;12380;51.118;4.176;2022-12-20T00:54:19;10.20;99.90
24252;DHT22;12380;51.118;4.176;2022-12-20T00:56:44;10.20;99.90
24252;DHT22;12380;51.118;4.176;2022-12-20T00:59:10;10.10;99.90
24252;DHT22;12380;51.118;4.176;2022-12-20T01:01:36;10.20;99.90
24252;DHT22;12380;51.118;4.176;2022-12-20T01:04:04;10.20;99.90
24252;DHT22;12380;51.118;4.176;2022-12-20T01:06:32;10.20;99.90
24252;DHT22;12380;51.118;4.176;2022-12-20T01:08:58;10.20;99.90
24252;DHT22;12380;51.118;4.176;2022-12-20T01:11:28;10.20;99.90
24252;DHT22;12380;51.118;4.176;2022-12-20T01:13:55;10.30;99.90
24252;DHT22;12380;51.118;4.176;2022-12-20T01:18:47;10.30;99.90
24252;DHT22;12380;51.118;4.176;2022-12-20T01:21:14;10.20;99.90
24252;DHT22;12380;51.118;4.176;2022-12-20T01:23:40;10.20;99.90
24252;DHT22;12380;51.118;4.176;2022-12-20T01:26:06;10.30;99.90
24252;DHT22;12380;51.118;4.176;2022-12-20T01:28:36;10.30;99.90
24252;DHT22;12380;51.118;4.176;2022-12-20T01:31:04;10.40;99.90
24252;DHT22;12380;51.118;4.176;2022-12-20T01:33:31;10.40;99.90
24252;DHT22;12380;51.118;4.176;2022-12-20T01:35:57;10.50;99.90
24252;DHT22;12380;51.118;4.176;2022-12-20T01:38:23;10.60;99.90
24252;DHT22;12380;51.118;4.176;2022-12-20T01:40:49;10.50;99.90
24252;DHT22;12380;51.118;4.176;2022-12-20T01:43:15;10.60;99.90
24252;DHT22;12380;51.118;4.176;2022-12-20T01:46:01;10.60;99.90
24252;DHT22;12380;51.118;4.176;2022-12-20T01:48:27;10.70;99.90
24252;DHT22;12380;51.118;4.176;2022-12-20T01:50:53;10.70;99.90
24252;DHT22;12380;51.118;4.176;2022-12-20T01:53:19;10.70;99.90
24252;DHT22;12380;51.118;4.176;2022-12-20T01:55:50;10.70;99.90
24252;DHT22;12380;51.118;4.176;2022-12-20T01:58:16;10.80;99.90
24252;DHT22;12380;51.118;4.176;2022-12-20T02:00:43;10.80;99.90
24252;DHT22;12380;51.118;4.176;2022-12-20T02:03:09;10.70;99.90
24252;DHT22;12380;51.118;4.176;2022-12-20T02:05:39;10.70;99.90
24252;DHT22;12380;51.118;4.176;2022-12-20T02:08:05;10.70;99.90
24252;DHT22;12380;51.118;4.176;2022-12-20T02:13:06;10.50;99.90
24252;DHT22;12380;51.118;4.176;2022-12-20T02:15:50;10.60;99.90
24252;DHT22;12380;51.118;4.176;2022-12-20T02:18:28;10.60;99.90
24252;DHT22;12380;51.118;4.176;2022-12-20T02:23:36;10.50;99.90
24252;DHT22;12380;51.118;4.176;2022-12-20T02:31:42;10.70;99.90
24252;DHT22;12380;51.118;4.176;2022-12-20T02:34:10;10.70;99.90
24252;DHT22;12380;51.118;4.176;2022-12-20T02:36:36;10.80;99.90
24252;DHT22;12380;51.118;4.176;2022-12-20T02:39:02;10.80;99.90
24252;DHT22;12380;51.118;4.176;2022-12-20T02:41:34;10.90;99.90
24252;DHT22;12380;51.118;4.176;2022-12-20T02:44:04;10.80;99.90
24252;DHT22;12380;51.118;4.176;2022-12-20T02:46:50;10.80;99.90
24252;DHT22;12380;51.118;4.176;2022-12-20T02:49:20;10.80;99.90
24252;DHT22;12380;51.118;4.176;2022-12-20T02:51:48;10.80;99.90
24252;DHT22;12380;51.118;4.176;2022-12-20T02:54:16;10.90;99.90
24252;DHT22;12380;51.118;4.176;2022-12-20T02:59:22;11.10;99.90
24252;DHT22;12380;51.118;4.176;2022-12-20T03:01:50;11.10;99.90
24252;DHT22;12380;51.118;4.176;2022-12-20T03:04:17;10.90;99.90
24252;DHT22;12380;51.118;4.176;2022-12-20T03:09:34;10.90;99.90
24252;DHT22;12380;51.118;4.176;2022-12-20T03:12:00;10.90;99.90
24252;DHT22;12380;51.118;4.176;2022-12-20T03:14:25;10.90;99.90
24252;DHT22;12380;51.118;4.176;2022-12-20T03:16:51;10.90;99.90
24252;DHT22;12380;51.118;4.176;2022-12-20T03:19:19;11.00;99.90
24252;DHT22;12380;51.118;4.176;2022-12-20T03:21:48;11.00;99.90
24252;DHT22;12380;51.118;4.176;2022-12-20T03:24:13;11.10;99.90
24252;DHT22;12380;51.118;4.176;2022-12-20T03:26:39;11.00;99.90
24252;DHT22;12380;51.118;4.176;2022-12-20T03:29:06;11.10;99.90
24252;DHT22;12380;51.118;4.176;2022-12-20T03:31:31;11.10;99.90
24252;DHT22;12380;51.118;4.176;2022-12-20T03:33:57;11.00;99.90
24252;DHT22;12380;51.118;4.176;2022-12-20T03:36:23;11.00;99.90
24252;DHT22;12380;51.118;4.176;2022-12-20T03:38:49;11.10;99.90
24252;DHT22;12380;51.118;4.176;2022-12-20T03:41:16;11.10;99.90
24252;DHT22;12380;51.118;4.176;2022-12-20T03:43:42;11.10;99.90
24252;DHT22;12380;51.118;4.176;2022-12-20T03:46:08;11.10;99.90
24252;DHT22;12380;51.118;4.176;2022-12-20T03:48:37;11.10;99.90
24252;DHT22;12380;51.118;4.176;2022-12-20T03:51:03;11.10;99.90
24252;DHT22;12380;51.118;4.176;2022-12-20T03:53:29;11.10;99.90
24252;DHT22;12380;51.118;4.176;2022-12-20T03:55:55;11.10;99.90
24252;DHT22;12380;51.118;4.176;2022-12-20T03:58:21;11.00;99.90
24252;DHT22;12380;51.118;4.176;2022-12-20T04:00:46;11.00;99.90
24252;DHT22;12380;51.118;4.176;2022-12-20T04:03:12;11.00;99.90
24252;DHT22;12380;51.118;4.176;2022-12-20T04:05:39;11.10;99.90
24252;DHT22;12380;51.118;4.176;2022-12-20T04:08:04;11.00;99.90
24252;DHT22;12380;51.118;4.176;2022-12-20T04:10:33;11.00;99.90
24252;DHT22;12380;51.118;4.176;2022-12-20T04:13:18;11.10;99.90
24252;DHT22;12380;51.118;4.176;2022-12-20T04:15:46;11.10;99.90
24252;DHT22;12380;51.118;4.176;2022-12-20T04:18:12;11.10;99.90
24252;DHT22;12380;51.118;4.176;2022-12-20T04:20:38;11.10;99.90
24252;DHT22;12380;51.118;4.176;2022-12-20T04:23:03;11.10;99.90
24252;DHT22;12380;51.118;4.176;2022-12-20T04:25:29;11.20;99.90
24252;DHT22;12380;51.118;4.176;2022-12-20T04:27:55;11.20;99.90
24252;DHT22;12380;51.118;4.176;2022-12-20T04:30:20;11.10;99.90
24252;DHT22;12380;51.118;4.176;2022-12-20T04:32:46;11.10;99.90
24252;DHT22;12380;51.118;4.176;2022-12-20T04:35:11;11.00;99.90
24252;DHT22;12380;51.118;4.176;2022-12-20T04:37:37;11.10;99.90
24252;DHT22;12380;51.118;4.176;2022-12-20T04:40:05;11.20;99.90
24252;DHT22;12380;51.118;4.176;2022-12-20T04:42:31;11.10;99.90
24252;DHT22;12380;51.118;4.176;2022-12-20T04:44:57;11.10;99.90
24252;DHT22;12380;51.118;4.176;2022-12-20T04:47:25;11.10;99.90
24252;DHT22;12380;51.118;4.176;2022-12-20T04:49:51;11.20;99.90
24252;DHT22;12380;51.118;4.176;2022-12-20T04:52:19;11.20;99.90
24252;DHT22;12380;51.118;4.176;2022-12-20T04:55:03;11.10;99.90
24252;DHT22;12380;51.118;4.176;2022-12-20T04:57:32;11.20;99.90
24252;DHT22;12380;51.118;4.176;2022-12-20T04:59:57;11.30;99.90
24252;DHT22;12380;51.118;4.176;2022-12-20T05:02:25;11.20;99.90
24252;DHT22;12380;51.118;4.176;2022-12-20T05:04:53;11.20;99.90
24252;DHT22;12380;51.118;4.176;2022-12-20T05:07:19;11.20;99.90
24252;DHT22;12380;51.118;4.176;2022-12-20T05:09:44;11.20;99.90
24252;DHT22;12380;51.118;4.176;2022-12-20T05:12:10;11.20;99.90
24252;DHT22;12380;51.118;4.176;2022-12-20T05:14:38;11.20;99.90
24252;DHT22;12380;51.118;4.176;2022-12-20T05:17:04;11.10;99.90
24252;DHT22;12380;51.118;4.176;2022-12-20T05:19:31;11.00;99.90
24252;DHT22;12380;51.118;4.176;2022-12-20T05:21:57;10.90;99.90
24252;DHT22;12380;51.118;4.176;2022-12-20T05:24:41;10.90;99.90
24252;DHT22;12380;51.118;4.176;2022-12-20T05:27:26;11.00;99.90
24252;DHT22;12380;51.118;4.176;2022-12-20T05:29:52;11.00;99.90
24252;DHT22;12380;51.118;4.176;2022-12-20T05:32:18;10.90;99.90
24252;DHT22;12380;51.118;4.176;2022-12-20T05:34:44;11.00;99.90
24252;DHT22;12380;51.118;4.176;2022-12-20T05:37:10;10.90;99.90
24252;DHT22;12380;51.118;4.176;2022-12-20T05:39:36;11.00;99.90
24252;DHT22;12380;51.118;4.176;2022-12-20T05:42:02;11.00;99.90
24252;DHT22;12380;51.118;4.176;2022-12-20T05:44:28;11.10;99.90
24252;DHT22;12380;51.118;4.176;2022-12-20T05:46:54;11.10;99.90
24252;DHT22;12380;51.118;4.176;2022-12-20T05:49:21;11.10;99.90
24252;DHT22;12380;51.118;4.176;2022-12-20T05:51:47;11.10;99.90
24252;DHT22;12380;51.118;4.176;2022-12-20T05:54:13;11.00;99.90
24252;DHT22;12380;51.118;4.176;2022-12-20T05:56:38;11.00;99.90
24252;DHT22;12380;51.118;4.176;2022-12-20T05:59:04;11.10;99.90
24252;DHT22;12380;51.118;4.176;2022-12-20T06:01:29;11.10;99.90
24252;DHT22;12380;51.118;4.176;2022-12-20T06:03:55;11.00;99.90
24252;DHT22;12380;51.118;4.176;2022-12-20T06:06:21;10.90;99.90
24252;DHT22;12380;51.118;4.176;2022-12-20T06:08:50;11.00;99.90
24252;DHT22;12380;51.118;4.176;2022-12-20T06:11:15;10.90;99.90
24252;DHT22;12380;51.118;4.176;2022-12-20T06:13:41;11.10;99.90
24252;DHT22;12380;51.118;4.176;2022-12-20T06:16:07;11.10;99.90
24252;DHT22;12380;51.118;4.176;2022-12-20T06:18:32;11.10;99.90
24252;DHT22;12380;51.118;4.176;2022-12-20T06:20:58;11.10;99.90
24252;DHT22;12380;51.118;4.176;2022-12-20T06:23:24;11.10;99.90
24252;DHT22;12380;51.118;4.176;2022-12-20T06:25:51;11.10;99.90
24252;DHT22;12380;51.118;4.176;2022-12-20T06:28:18;11.20;99.90
24252;DHT22;12380;51.118;4.176;2022-12-20T06:30:54;11.20;99.90
24252;DHT22;12380;51.118;4.176;2022-12-20T06:33:21;11.20;99.90
24252;DHT22;12380;51.118;4.176;2022-12-20T06:35:50;11.20;99.90
24252;DHT22;12380;51.118;4.176;2022-12-20T06:38:16;11.20;99.90
24252;DHT22;12380;51.118;4.176;2022-12-20T06:40:42;11.10;99.90
24252;DHT22;12380;51.118;4.176;2022-12-20T06:43:08;11.00;99.90
24252;DHT22;12380;51.118;4.176;2022-12-20T06:45:33;11.10;99.90
24252;DHT22;12380;51.118;4.176;2022-12-20T06:47:59;11.10;99.90
24252;DHT22;12380;51.118;4.176;2022-12-20T06:50:25;11.20;99.90
24252;DHT22;12380;51.118;4.176;2022-12-20T06:52:52;11.00;99.90
24252;DHT22;12380;51.118;4.176;2022-12-20T06:55:17;11.10;99.90
24252;DHT22;12380;51.118;4.176;2022-12-20T06:57:43;11.20;99.90
24252;DHT22;12380;51.118;4.176;2022-12-20T07:00:08;11.00;99.90
24252;DHT22;12380;51.118;4.176;2022-12-20T07:02:34;11.00;99.90
24252;DHT22;12380;51.118;4.176;2022-12-20T07:05:02;10.90;99.90
24252;DHT22;12380;51.118;4.176;2022-12-20T07:07:29;10.90;99.90
24252;DHT22;12380;51.118;4.176;2022-12-20T07:09:55;10.90;99.90
24252;DHT22;12380;51.118;4.176;2022-12-20T07:12:23;10.90;99.90
24252;DHT22;12380;51.118;4.176;2022-12-20T07:14:50;10.90;99.90
24252;DHT22;12380;51.118;4.176;2022-12-20T07:17:16;10.80;99.90
24252;DHT22;12380;51.118;4.176;2022-12-20T07:19:42;10.70;99.90
24252;DHT22;12380;51.118;4.176;2022-12-20T07:22:08;10.60;99.90
24252;DHT22;12380;51.118;4.176;2022-12-20T07:24:33;10.50;99.90
24252;DHT22;12380;51.118;4.176;2022-12-20T07:27:00;10.50;99.90
24252;DHT22;12380;51.118;4.176;2022-12-20T07:29:26;10.50;99.90
24252;DHT22;12380;51.118;4.176;2022-12-20T07:31:52;10.40;99.90
24252;DHT22;12380;51.118;4.176;2022-12-20T07:34:20;10.30;99.90
24252;DHT22;12380;51.118;4.176;2022-12-20T07:36:46;10.20;99.90
24252;DHT22;12380;51.118;4.176;2022-12-20T07:39:13;10.10;99.90
24252;DHT22;12380;51.118;4.176;2022-12-20T07:41:38;10.20;99.90
24252;DHT22;12380;51.118;4.176;2022-12-20T07:44:06;10.20;99.90
24252;DHT22;12380;51.118;4.176;2022-12-20T07:46:32;10.30;99.90
24252;DHT22;12380;51.118;4.176;2022-12-20T07:48:58;10.20;99.90
24252;DHT22;12380;51.118;4.176;2022-12-20T07:51:24;10.20;99.90
24252;DHT22;12380;51.118;4.176;2022-12-20T07:53:55;10.20;99.90
24252;DHT22;12380;51.118;4.176;2022-12-20T07:56:25;10.20;99.90
24252;DHT22;12380;51.118;4.176;2022-12-20T07:58:51;10.10;99.90
24252;DHT22;12380;51.118;4.176;2022-12-20T08:01:23;10.10;99.90
24252;DHT22;12380;51.118;4.176;2022-12-20T08:03:50;10.10;99.90
24252;DHT22;12380;51.118;4.176;2022-12-20T08:06:16;10.20;99.90
24252;DHT22;12380;51.118;4.176;2022-12-20T08:08:44;10.20;99.90
24252;DHT22;12380;51.118;4.176;2022-12-20T08:11:11;10.20;99.90
24252;DHT22;12380;51.118;4.176;2022-12-20T08:13:37;10.20;99.90
24252;DHT22;12380;51.118;4.176;2022-12-20T08:16:04;10.10;99.90
24252;DHT22;12380;51.118;4.176;2022-12-20T08:18:30;10.10;99.90
24252;DHT22;12380;51.118;4.176;2022-12-20T08:20:56;10.20;99.90
24252;DHT22;12380;51.118;4.176;2022-12-20T08:23:21;10.10;99.90
24252;DHT22;12380;51.118;4.176;2022-12-20T08:25:51;10.10;99.90
24252;DHT22;12380;51.118;4.176;2022-12-20T08:28:17;10.20;99.90
24252;DHT22;12380;51.118;4.176;2022-12-20T08:30:43;10.10;99.90
24252;DHT22;12380;51.118;4.176;2022-12-20T08:33:08;10.10;99.90
24252;DHT22;12380;51.118;4.176;2022-12-20T08:35:36;10.10;99.90
24252;DHT22;12380;51.118;4.176;2022-12-20T08:38:02;10.10;99.90
24252;DHT22;12380;51.118;4.176;2022-12-20T08:40:27;10.20;99.90
24252;DHT22;12380;51.118;4.176;2022-12-20T08:42:53;10.20;99.90
24252;DHT22;12380;51.118;4.176;2022-12-20T08:45:19;10.20;99.90
24252;DHT22;12380;51.118;4.176;2022-12-20T08:47:45;10.10;99.90
24252;DHT22;12380;51.118;4.176;2022-12-20T08:50:12;10.20;99.90
24252;DHT22;12380;51.118;4.176;2022-12-20T08:52:37;10.10;99.90
24252;DHT22;12380;51.118;4.176;2022-12-20T08:55:04;10.10;99.90
24252;DHT22;12380;51.118;4.176;2022-12-20T08:57:30;10.20;99.90
24252;DHT22;12380;51.118;4.176;2022-12-20T08:59:56;10.10;99.90
24252;DHT22;12380;51.118;4.176;2022-12-20T09:02:21;10.10;99.90
24252;DHT22;12380;51.118;4.176;2022-12-20T09:04:47;10.20;99.90
24252;DHT22;12380;51.118;4.176;2022-12-20T09:07:13;10.20;99.90
24252;DHT22;12380;51.118;4.176;2022-12-20T09:09:39;10.20;99.90
24252;DHT22;12380;51.118;4.176;2022-12-20T09:12:05;10.10;99.90
24252;DHT22;12380;51.118;4.176;2022-12-20T09:14:32;10.20;99.90
24252;DHT22;12380;51.118;4.176;2022-12-20T09:16:57;10.30;99.90
24252;DHT22;12380;51.118;4.176;2022-12-20T09:19:23;10.20;99.90
24252;DHT22;12380;51.118;4.176;2022-12-20T09:21:51;10.20;99.90
24252;DHT22;12380;51.118;4.176;2022-12-20T09:24:17;10.40;99.90
24252;DHT22;12380;51.118;4.176;2022-12-20T09:26:45;10.30;99.90
24252;DHT22;12380;51.118;4.176;2022-12-20T09:29:11;10.30;99.90
24252;DHT22;12380;51.118;4.176;2022-12-20T09:31:38;10.30;99.90
24252;DHT22;12380;51.118;4.176;2022-12-20T09:34:04;10.30;99.90
24252;DHT22;12380;51.118;4.176;2022-12-20T09:36:30;10.40;99.90
24252;DHT22;12380;51.118;4.176;2022-12-20T09:38:56;10.40;99.90
24252;DHT22;12380;51.118;4.176;2022-12-20T09:43:47;10.20;99.90
24252;DHT22;12380;51.118;4.176;2022-12-20T09:46:14;10.30;99.90
24252;DHT22;12380;51.118;4.176;2022-12-20T09:48:40;10.20;99.90
24252;DHT22;12380;51.118;4.176;2022-12-20T09:56:21;10.30;99.90
24252;DHT22;12380;51.118;4.176;2022-12-20T09:58:59;10.30;99.90
24252;DHT22;12380;51.118;4.176;2022-12-20T10:01:26;10.30;99.90
24252;DHT22;12380;51.118;4.176;2022-12-20T10:03:52;10.30;99.90
24252;DHT22;12380;51.118;4.176;2022-12-20T10:06:32;10.30;99.90
24252;DHT22;12380;51.118;4.176;2022-12-20T10:09:03;10.30;99.90
24252;DHT22;12380;51.118;4.176;2022-12-20T10:17:04;10.40;99.90
24252;DHT22;12380;51.118;4.176;2022-12-20T10:24:29;10.40;99.90
24252;DHT22;12380;51.118;4.176;2022-12-20T10:26:56;10.40;99.90
24252;DHT22;12380;51.118;4.176;2022-12-20T10:29:23;10.40;99.90
24252;DHT22;12380;51.118;4.176;2022-12-20T10:31:53;10.40;99.90
24252;DHT22;12380;51.118;4.176;2022-12-20T10:34:25;10.40;99.90
24252;DHT22;12380;51.118;4.176;2022-12-20T10:39:50;10.40;99.90
24252;DHT22;12380;51.118;4.176;2022-12-20T10:42:22;10.40;99.90
24252;DHT22;12380;51.118;4.176;2022-12-20T10:44:49;10.40;99.90
24252;DHT22;12380;51.118;4.176;2022-12-20T10:47:30;10.40;99.90
24252;DHT22;12380;51.118;4.176;2022-12-20T10:50:20;10.40;99.90
24252;DHT22;12380;51.118;4.176;2022-12-20T10:52:45;10.50;99.90
24252;DHT22;12380;51.118;4.176;2022-12-20T10:57:55;10.50;99.90
24252;DHT22;12380;51.118;4.176;2022-12-20T11:00:26;10.50;99.90
24252;DHT22;12380;51.118;4.176;2022-12-20T11:03:11;10.40;99.90
24252;DHT22;12380;51.118;4.176;2022-12-20T11:05:37;10.40;99.90
24252;DHT22;12380;51.118;4.176;2022-12-20T11:08:14;10.50;99.90
24252;DHT22;12380;51.118;4.176;2022-12-20T11:10:40;10.40;99.90
24252;DHT22;12380;51.118;4.176;2022-12-20T11:13:09;10.50;99.90
24252;DHT22;12380;51.118;4.176;2022-12-20T11:15:46;10.60;99.90
24252;DHT22;12380;51.118;4.176;2022-12-20T11:18:21;10.60;99.90
24252;DHT22;12380;51.118;4.176;2022-12-20T11:31:15;10.60;99.90
24252;DHT22;12380;51.118;4.176;2022-12-20T11:33:59;10.60;99.90
24252;DHT22;12380;51.118;4.176;2022-12-20T11:39:15;10.60;99.90
24252;DHT22;12380;51.118;4.176;2022-12-20T11:41:54;10.60;99.90
24252;DHT22;12380;51.118;4.176;2022-12-20T11:47:00;10.70;99.90
24252;DHT22;12380;51.118;4.176;2022-12-20T11:54:42;10.70;99.90
24252;DHT22;12380;51.118;4.176;2022-12-20T11:57:12;10.70;99.90
24252;DHT22;12380;51.118;4.176;2022-12-20T12:02:30;10.60;99.90
24252;DHT22;12380;51.118;4.176;2022-12-20T12:05:05;10.60;99.90
24252;DHT22;12380;51.118;4.176;2022-12-20T12:07:32;10.60;99.90
24252;DHT22;12380;51.118;4.176;2022-12-20T12:10:06;10.60;99.90
24252;DHT22;12380;51.118;4.176;2022-12-20T12:12:44;10.60;99.90
24252;DHT22;12380;51.118;4.176;2022-12-20T12:17:57;10.70;99.90
24252;DHT22;12380;51.118;4.176;2022-12-20T12:22:52;10.60;99.90
24252;DHT22;12380;51.118;4.176;2022-12-20T12:25:20;10.60;99.90
24252;DHT22;12380;51.118;4.176;2022-12-20T12:27:46;10.60;99.90
24252;DHT22;12380;51.118;4.176;2022-12-20T12:30:13;10.50;99.90
24252;DHT22;12380;51.118;4.176;2022-12-20T12:32:40;10.50;99.90
24252;DHT22;12380;51.118;4.176;2022-12-20T12:45:04;10.60;99.90
24252;DHT22;12380;51.118;4.176;2022-12-20T12:47:39;10.60;99.90
24252;DHT22;12380;51.118;4.176;2022-12-20T12:53:15;10.40;99.90
24252;DHT22;12380;51.118;4.176;2022-12-20T12:55:48;10.40;99.90
24252;DHT22;12380;51.118;4.176;2022-12-20T13:00:55;10.40;99.90
24252;DHT22;12380;51.118;4.176;2022-12-20T13:03:41;10.40;99.90
24252;DHT22;12380;51.118;4.176;2022-12-20T13:09:34;10.40;99.90
24252;DHT22;12380;51.118;4.176;2022-12-20T13:12:45;10.50;99.90
24252;DHT22;12380;51.118;4.176;2022-12-20T13:14:46;10.50;99.90
24252;DHT22;12380;51.118;4.176;2022-12-20T13:19:51;10.40;99.90
24252;DHT22;12380;51.118;4.176;2022-12-20T13:22:21;10.40;99.90
24252;DHT22;12380;51.118;4.176;2022-12-20T13:25:00;10.40;99.90
24252;DHT22;12380;51.118;4.176;2022-12-20T13:27:37;10.40;99.90
24252;DHT22;12380;51.118;4.176;2022-12-20T13:42:50;10.50;99.90
24252;DHT22;12380;51.118;4.176;2022-12-20T13:45:19;10.40;99.90
24252;DHT22;12380;51.118;4.176;2022-12-20T13:47:47;10.40;99.90
24252;DHT22;12380;51.118;4.176;2022-12-20T13:52:51;10.40;99.90
24252;DHT22;12380;51.118;4.176;2022-12-20T13:55:25;10.40;99.90
24252;DHT22;12380;51.118;4.176;2022-12-20T13:57:51;10.30;99.90
24252;DHT22;12380;51.118;4.176;2022-12-20T14:00:27;10.30;99.90
24252;DHT22;12380;51.118;4.176;2022-12-20T14:02:56;10.40;99.90
24252;DHT22;12380;51.118;4.176;2022-12-20T14:07:54;10.40;99.90
24252;DHT22;12380;51.118;4.176;2022-12-20T14:10:24;10.40;99.90
24252;DHT22;12380;51.118;4.176;2022-12-20T14:12:51;10.40;99.90
24252;DHT22;12380;51.118;4.176;2022-12-20T14:15:33;10.30;99.90
24252;DHT22;12380;51.118;4.176;2022-12-20T14:18:05;10.30;99.90
24252;DHT22;12380;51.118;4.176;2022-12-20T14:20:32;10.30;99.90
24252;DHT22;12380;51.118;4.176;2022-12-20T14:23:03;10.40;99.90
24252;DHT22;12380;51.118;4.176;2022-12-20T14:25:30;10.40;99.90
24252;DHT22;12380;51.118;4.176;2022-12-20T14:27:56;10.30;99.90
24252;DHT22;12380;51.118;4.176;2022-12-20T14:30:26;10.40;99.90
24252;DHT22;12380;51.118;4.176;2022-12-20T14:32:55;10.30;99.90
24252;DHT22;12380;51.118;4.176;2022-12-20T14:35:21;10.30;99.90
24252;DHT22;12380;51.118;4.176;2022-12-20T14:37:54;10.30;99.90
24252;DHT22;12380;51.118;4.176;2022-12-20T14:40:20;10.40;99.90
24252;DHT22;12380;51.118;4.176;2022-12-20T14:42:46;10.40;99.90
24252;DHT22;12380;51.118;4.176;2022-12-20T14:50:19;10.40;99.90
24252;DHT22;12380;51.118;4.176;2022-12-20T14:52:47;10.50;99.90
24252;DHT22;12380;51.118;4.176;2022-12-20T14:55:15;10.50;99.90
24252;DHT22;12380;51.118;4.176;2022-12-20T14:57:52;10.50;99.90
24252;DHT22;12380;51.118;4.176;2022-12-20T15:00:23;10.40;99.90
24252;DHT22;12380;51.118;4.176;2022-12-20T15:10:40;10.40;99.90
24252;DHT22;12380;51.118;4.176;2022-12-20T15:13:16;10.30;99.90
24252;DHT22;12380;51.118;4.176;2022-12-20T15:15:42;10.30;99.90
24252;DHT22;12380;51.118;4.176;2022-12-20T15:18:11;10.30;99.90
24252;DHT22;12380;51.118;4.176;2022-12-20T15:20:37;10.20;99.90
24252;DHT22;12380;51.118;4.176;2022-12-20T15:23:03;10.30;99.90
24252;DHT22;12380;51.118;4.176;2022-12-20T15:25:32;10.20;99.90
24252;DHT22;12380;51.118;4.176;2022-12-20T15:28:00;10.20;99.90
24252;DHT22;12380;51.118;4.176;2022-12-20T15:30:26;10.20;99.90
24252;DHT22;12380;51.118;4.176;2022-12-20T15:32:52;10.30;99.90
24252;DHT22;12380;51.118;4.176;2022-12-20T15:35:18;10.30;99.90
24252;DHT22;12380;51.118;4.176;2022-12-20T15:37:44;10.40;99.90
24252;DHT22;12380;51.118;4.176;2022-12-20T15:40:12;10.40;99.90
24252;DHT22;12380;51.118;4.176;2022-12-20T15:42:40;10.30;99.90
24252;DHT22;12380;51.118;4.176;2022-12-20T15:45:11;10.20;99.90
24252;DHT22;12380;51.118;4.176;2022-12-20T15:47:37;10.40;99.90
24252;DHT22;12380;51.118;4.176;2022-12-20T15:50:05;10.40;99.90
24252;DHT22;12380;51.118;4.176;2022-12-20T15:52:31;10.40;99.90
24252;DHT22;12380;51.118;4.176;2022-12-20T15:54:57;10.40;99.90
24252;DHT22;12380;51.118;4.176;2022-12-20T15:57:23;10.40;99.90
24252;DHT22;12380;51.118;4.176;2022-12-20T15:59:49;10.30;99.90
24252;DHT22;12380;51.118;4.176;2022-12-20T16:02:20;10.50;99.90
24252;DHT22;12380;51.118;4.176;2022-12-20T16:04:49;10.40;99.90
24252;DHT22;12380;51.118;4.176;2022-12-20T16:07:15;10.40;99.90
24252;DHT22;12380;51.118;4.176;2022-12-20T16:09:41;10.50;99.90
24252;DHT22;12380;51.118;4.176;2022-12-20T16:12:17;10.40;99.90
24252;DHT22;12380;51.118;4.176;2022-12-20T16:14:44;10.40;99.90
24252;DHT22;12380;51.118;4.176;2022-12-20T16:17:13;10.40;99.90
24252;DHT22;12380;51.118;4.176;2022-12-20T16:19:40;10.40;99.90
24252;DHT22;12380;51.118;4.176;2022-12-20T16:22:07;10.40;99.90
24252;DHT22;12380;51.118;4.176;2022-12-20T16:24:38;10.40;99.90
24252;DHT22;12380;51.118;4.176;2022-12-20T16:27:04;10.30;99.90
24252;DHT22;12380;51.118;4.176;2022-12-20T16:29:29;10.30;99.90
24252;DHT22;12380;51.118;4.176;2022-12-20T16:31:55;10.30;99.90
24252;DHT22;12380;51.118;4.176;2022-12-20T16:34:20;10.40;99.90
24252;DHT22;12380;51.118;4.176;2022-12-20T16:36:47;10.30;99.90
24252;DHT22;12380;51.118;4.176;2022-12-20T16:39:13;10.30;99.90
24252;DHT22;12380;51.118;4.176;2022-12-20T16:41:39;10.30;99.90
24252;DHT22;12380;51.118;4.176;2022-12-20T16:44:10;10.50;99.90
24252;DHT22;12380;51.118;4.176;2022-12-20T16:46:37;10.50;99.90
24252;DHT22;12380;51.118;4.176;2022-12-20T16:49:05;10.40;99.90
24252;DHT22;12380;51.118;4.176;2022-12-20T16:54:00;10.40;99.90
24252;DHT22;12380;51.118;4.176;2022-12-20T16:56:26;10.40;99.90
24252;DHT22;12380;51.118;4.176;2022-12-20T16:58:53;10.30;99.90
24252;DHT22;12380;51.118;4.176;2022-12-20T17:01:22;10.30;99.90
24252;DHT22;12380;51.118;4.176;2022-12-20T17:03:51;10.40;99.90
24252;DHT22;12380;51.118;4.176;2022-12-20T17:06:17;10.40;99.90
24252;DHT22;12380;51.118;4.176;2022-12-20T17:08:43;10.50;99.90
24252;DHT22;12380;51.118;4.176;2022-12-20T17:13:42;10.20;99.90
24252;DHT22;12380;51.118;4.176;2022-12-20T17:16:14;10.30;99.90
24252;DHT22;12380;51.118;4.176;2022-12-20T17:18:43;10.30;99.90
24252;DHT22;12380;51.118;4.176;2022-12-20T17:21:23;10.30;99.90
24252;DHT22;12380;51.118;4.176;2022-12-20T17:23:52;10.30;99.90
24252;DHT22;12380;51.118;4.176;2022-12-20T17:26:19;10.40;99.90
24252;DHT22;12380;51.118;4.176;2022-12-20T17:28:46;10.30;99.90
24252;DHT22;12380;51.118;4.176;2022-12-20T17:33:49;10.40;99.90
24252;DHT22;12380;51.118;4.176;2022-12-20T17:36:15;10.30;99.90
24252;DHT22;12380;51.118;4.176;2022-12-20T17:38:43;10.30;99.90
24252;DHT22;12380;51.118;4.176;2022-12-20T17:41:18;10.30;99.90
24252;DHT22;12380;51.118;4.176;2022-12-20T17:43:45;10.30;99.90
24252;DHT22;12380;51.118;4.176;2022-12-20T17:46:11;10.50;99.90